createdAt,value
2023-04-10T00:01:45.262Z,49.22
2023-04-10T00:04:12.010Z,49.27
2023-04-10T00:06:38.809Z,49.44
2023-04-10T00:09:05.313Z,49.39
2023-04-10T00:11:31.902Z,49.50
2023-04-10T00:13:58.483Z,49.58
2023-04-10T00:16:25.098Z,49.81
2023-04-10T00:18:51.663Z,49.22
2023-04-10T00:21:18.169Z,49.30
2023-04-10T00:23:44.662Z,49.41
2023-04-10T00:26:11.247Z,49.44
2023-04-10T00:28:38.166Z,49.17
2023-04-10T00:31:05.678Z,49.49
2023-04-10T00:33:32.201Z,50.20
2023-04-10T00:35:58.755Z,49.33
2023-04-10T00:38:25.552Z,49.42
2023-04-10T00:40:52.053Z,49.56
2023-04-10T00:43:20.284Z,49.49
2023-04-10T00:45:47.926Z,49.55
2023-04-10T00:48:16.099Z,49.80
2023-04-10T00:50:42.650Z,49.30
2023-04-10T00:53:09.159Z,49.30
2023-04-10T00:55:35.857Z,49.60
2023-04-10T00:58:02.446Z,49.75
2023-04-10T01:00:29.049Z,49.09
2023-04-10T01:02:55.872Z,49.20
2023-04-10T01:05:22.692Z,49.20
2023-04-10T01:08:00.846Z,49.39
2023-04-10T01:10:34.580Z,49.20
2023-04-10T01:13:16.212Z,49.28
2023-04-10T01:15:59.496Z,49.38
2023-04-10T01:18:34.076Z,49.23
2023-04-10T01:21:00.588Z,49.54
2023-04-10T01:24:04.497Z,49.26
2023-04-10T01:27:08.098Z,49.19
2023-04-10T01:29:34.625Z,49.58
2023-04-10T01:32:08.354Z,49.45
2023-04-10T01:34:48.121Z,49.32
2023-04-10T01:37:26.442Z,49.46
2023-04-10T01:40:03.363Z,49.53
2023-04-10T01:42:31.726Z,49.30
2023-04-10T01:44:58.677Z,49.49
2023-04-10T01:47:25.203Z,49.72
2023-04-10T01:49:51.749Z,49.31
2023-04-10T01:52:18.267Z,49.56
2023-04-10T01:54:48.413Z,49.42
2023-04-10T01:57:15.950Z,49.53
2023-04-10T01:59:42.672Z,49.31
2023-04-10T02:02:11.849Z,49.72
2023-04-10T02:04:38.680Z,49.48
2023-04-10T02:07:23.883Z,49.27
2023-04-10T02:10:08.170Z,49.48
2023-04-10T02:12:55.713Z,49.24
2023-04-10T02:15:23.464Z,49.29
2023-04-10T02:17:50.083Z,49.58
2023-04-10T02:20:16.667Z,49.80
2023-04-10T02:22:46.563Z,49.44
2023-04-10T02:25:13.141Z,49.55
2023-04-10T02:27:40.635Z,49.44
2023-04-10T02:30:07.651Z,49.40
2023-04-10T02:32:34.235Z,49.51
2023-04-10T02:35:02.183Z,49.44
2023-04-10T02:37:29.064Z,49.32
2023-04-10T02:39:55.634Z,49.34
2023-04-10T02:42:22.163Z,49.42
2023-04-10T02:44:48.821Z,49.58
2023-04-10T02:47:16.098Z,49.48
2023-04-10T02:49:42.678Z,49.03
2023-04-10T02:52:09.225Z,48.97
2023-04-10T02:54:35.848Z,49.80
2023-04-10T02:57:02.515Z,49.44
2023-04-10T02:59:29.003Z,49.49
2023-04-10T03:01:55.628Z,49.67
2023-04-10T03:04:22.358Z,49.79
2023-04-10T03:06:48.980Z,49.69
2023-04-10T03:09:15.555Z,49.54
2023-04-10T03:11:42.105Z,49.36
2023-04-10T03:14:09.754Z,49.61
2023-04-10T03:16:36.577Z,49.67
2023-04-10T03:19:03.244Z,49.54
2023-04-10T03:21:30.105Z,49.28
2023-04-10T03:23:56.882Z,49.40
2023-04-10T03:26:24.154Z,49.27
2023-04-10T03:28:50.913Z,49.37
2023-04-10T03:31:17.476Z,49.03
2023-04-10T03:33:44.023Z,49.56
2023-04-10T03:36:11.507Z,49.13
2023-04-10T03:38:38.088Z,49.76
2023-04-10T03:41:04.857Z,49.54
2023-04-10T03:43:31.581Z,49.48
2023-04-10T03:45:58.214Z,49.63
2023-04-10T03:48:28.073Z,50.21
2023-04-10T03:50:57.872Z,49.61
2023-04-10T03:53:24.608Z,49.55
2023-04-10T03:55:52.573Z,49.13
2023-04-10T03:58:19.287Z,49.42
2023-04-10T04:00:46.383Z,49.48
2023-04-10T04:03:13.341Z,49.49
2023-04-10T04:05:40.089Z,49.94
2023-04-10T04:08:06.868Z,49.65
2023-04-10T04:10:33.547Z,49.66
2023-04-10T04:13:00.141Z,49.40
2023-04-10T04:15:26.748Z,49.84
2023-04-10T04:17:53.355Z,49.46
2023-04-10T04:20:19.954Z,49.43
2023-04-10T04:22:46.939Z,49.53
2023-04-10T04:25:13.507Z,49.51
2023-04-10T04:27:40.066Z,49.43
2023-04-10T04:30:07.284Z,49.64
2023-04-10T04:32:33.833Z,49.29
2023-04-10T04:35:00.413Z,49.60
2023-04-10T04:37:26.926Z,49.28
2023-04-10T04:39:53.511Z,49.48
2023-04-10T04:42:20.187Z,49.38
2023-04-10T04:44:46.750Z,49.48
2023-04-10T04:47:13.264Z,49.62
2023-04-10T04:49:39.815Z,49.15
2023-04-10T04:52:06.389Z,49.36
2023-04-10T04:54:32.927Z,48.94
2023-04-10T04:56:59.483Z,49.65
2023-04-10T04:59:25.978Z,49.54
2023-04-10T05:01:52.807Z,49.79
2023-04-10T05:04:20.682Z,49.33
2023-04-10T05:06:47.331Z,49.37
2023-04-10T05:09:13.858Z,49.54
2023-04-10T05:11:40.368Z,49.47
2023-04-10T05:14:06.905Z,49.38
2023-04-10T05:16:33.465Z,49.32
2023-04-10T05:19:00.055Z,49.59
2023-04-10T05:21:27.414Z,49.53
2023-04-10T05:23:53.925Z,49.47
2023-04-10T05:26:20.921Z,49.52
2023-04-10T05:28:47.485Z,49.69
2023-04-10T05:31:14.013Z,49.50
2023-04-10T05:33:40.772Z,49.24
2023-04-10T05:36:07.706Z,49.45
2023-04-10T05:38:34.408Z,49.72
2023-04-10T05:41:00.955Z,49.38
2023-04-10T05:43:27.470Z,49.27
2023-04-10T05:45:54.001Z,49.38
2023-04-10T05:48:20.608Z,49.24
2023-04-10T05:50:47.154Z,49.42
2023-04-10T05:53:14.373Z,49.41
2023-04-10T05:55:40.901Z,49.15
2023-04-10T05:58:07.391Z,49.35
2023-04-10T06:00:33.893Z,49.20
2023-04-10T06:03:00.738Z,49.42
2023-04-10T06:05:27.981Z,49.23
2023-04-10T06:07:56.263Z,49.19
2023-04-10T06:10:24.195Z,49.43
2023-04-10T06:12:50.750Z,49.67
2023-04-10T06:15:17.298Z,49.47
2023-04-10T06:17:44.373Z,49.04
2023-04-10T06:20:11.327Z,49.42
2023-04-10T06:22:37.883Z,48.91
2023-04-10T06:25:05.548Z,49.51
2023-04-10T06:27:33.488Z,49.39
2023-04-10T06:30:00.071Z,49.52
2023-04-10T06:32:26.591Z,49.50
2023-04-10T06:34:53.138Z,49.40
2023-04-10T06:37:19.702Z,49.71
2023-04-10T06:39:46.240Z,49.55
2023-04-10T06:42:12.803Z,49.55
2023-04-10T06:44:39.330Z,49.44
2023-04-10T06:47:06.896Z,48.93
2023-04-10T06:49:33.465Z,49.20
2023-04-10T06:52:00.235Z,49.20
2023-04-10T06:54:26.749Z,49.28
2023-04-10T06:56:53.372Z,49.01
2023-04-10T06:59:19.872Z,49.36
2023-04-10T07:01:46.417Z,49.20
2023-04-10T07:04:13.030Z,48.78
2023-04-10T07:06:39.665Z,49.04
2023-04-10T07:09:06.225Z,49.21
2023-04-10T07:11:32.794Z,48.81
2023-04-10T07:14:00.873Z,48.74
2023-04-10T07:16:29.349Z,48.75
2023-04-10T07:18:56.530Z,49.20
2023-04-10T07:21:23.361Z,48.80
2023-04-10T07:23:49.882Z,48.95
2023-04-10T07:26:16.548Z,48.88
2023-04-10T07:28:43.141Z,49.24
2023-04-10T07:31:10.663Z,48.89
2023-04-10T07:33:40.963Z,49.14
2023-04-10T07:36:08.173Z,49.22
2023-04-10T07:38:34.802Z,48.94
2023-04-10T07:41:01.384Z,49.46
2023-04-10T07:43:27.884Z,48.61
2023-04-10T07:45:54.492Z,49.13
2023-04-10T07:48:21.254Z,49.40
2023-04-10T07:50:48.050Z,48.73
2023-04-10T07:53:14.714Z,49.29
2023-04-10T07:55:42.786Z,49.07
2023-04-10T07:58:09.440Z,49.33
2023-04-10T08:00:36.157Z,49.24
2023-04-10T08:03:04.265Z,49.25
2023-04-10T08:05:31.297Z,49.02
2023-04-10T08:07:58.010Z,49.25
2023-04-10T08:10:24.550Z,49.37
2023-04-10T08:12:51.155Z,49.21
2023-04-10T08:15:18.313Z,49.25
2023-04-10T08:17:44.943Z,48.77
2023-04-10T08:20:11.984Z,49.13
2023-04-10T08:22:38.557Z,49.08
2023-04-10T08:25:05.435Z,49.19
2023-04-10T08:27:31.956Z,49.05
2023-04-10T08:29:58.517Z,49.52
2023-04-10T08:32:26.639Z,49.23
2023-04-10T08:34:53.196Z,48.89
2023-04-10T08:37:21.251Z,49.09
2023-04-10T08:39:47.798Z,49.10
2023-04-10T08:42:14.370Z,49.77
2023-04-10T08:44:41.755Z,48.90
2023-04-10T08:47:08.241Z,48.96
2023-04-10T08:49:44.834Z,49.07
2023-04-10T08:52:24.890Z,49.02
2023-04-10T08:54:56.601Z,48.99
2023-04-10T08:57:23.176Z,49.18
2023-04-10T08:59:51.570Z,49.08
2023-04-10T09:02:18.922Z,49.38
2023-04-10T09:04:54.591Z,49.15
2023-04-10T09:07:23.066Z,49.16
2023-04-10T09:09:49.583Z,48.89
2023-04-10T09:12:16.327Z,49.11
2023-04-10T09:14:42.913Z,49.38
2023-04-10T09:17:25.019Z,49.13
2023-04-10T09:19:55.409Z,49.26
2023-04-10T09:22:35.094Z,49.10
2023-04-10T09:25:02.511Z,49.15
2023-04-10T09:27:35.671Z,49.04
2023-04-10T09:30:02.579Z,48.98
2023-04-10T09:32:45.324Z,49.09
2023-04-10T09:35:13.117Z,49.08
2023-04-10T09:37:40.870Z,48.91
2023-04-10T09:40:21.328Z,48.85
2023-04-10T09:42:47.887Z,48.91
2023-04-10T09:45:14.404Z,48.78
2023-04-10T09:47:40.923Z,48.64
2023-04-10T09:50:07.896Z,48.79
2023-04-10T09:52:35.433Z,48.79
2023-04-10T09:55:04.274Z,48.92
2023-04-10T09:57:31.909Z,48.91
2023-04-10T10:00:05.191Z,49.16
2023-04-10T10:02:32.226Z,48.96
2023-04-10T10:05:01.816Z,48.98
2023-04-10T10:07:28.417Z,49.00
2023-04-10T10:09:55.006Z,48.74
2023-04-10T10:12:47.641Z,48.89
2023-04-10T10:15:42.474Z,49.16
2023-04-10T10:18:41.411Z,48.99
2023-04-10T10:21:09.353Z,48.91
2023-04-10T10:23:36.659Z,49.14
2023-04-10T10:26:05.566Z,48.94
2023-04-10T10:28:32.956Z,48.98
2023-04-10T10:30:59.945Z,49.11
2023-04-10T10:33:26.556Z,48.99
2023-04-10T10:35:53.101Z,48.94
2023-04-10T10:38:19.733Z,49.25
2023-04-10T10:40:51.960Z,48.96
2023-04-10T10:43:27.893Z,49.10
2023-04-10T10:46:02.270Z,49.11
2023-04-10T10:48:28.818Z,49.00
2023-04-10T10:50:57.501Z,48.97
2023-04-10T10:53:34.724Z,49.00
2023-04-10T10:56:19.316Z,49.04
2023-04-10T10:58:49.814Z,48.95
2023-04-10T11:01:16.756Z,49.00
2023-04-10T11:03:46.590Z,48.96
2023-04-10T11:06:16.972Z,49.09
2023-04-10T11:08:45.991Z,49.14
2023-04-10T11:11:23.292Z,49.07
2023-04-10T11:13:49.764Z,48.86
2023-04-10T11:16:16.394Z,49.04
2023-04-10T11:18:56.115Z,49.09
2023-04-10T11:21:32.823Z,48.88
2023-04-10T11:23:59.423Z,49.24
2023-04-10T11:26:35.076Z,49.10
2023-04-10T11:29:02.413Z,49.19
2023-04-10T11:31:28.942Z,49.46
2023-04-10T11:34:02.841Z,49.23
2023-04-10T11:36:29.543Z,49.12
2023-04-10T11:39:00.577Z,49.04
2023-04-10T11:41:34.191Z,49.07
2023-04-10T11:44:01.837Z,49.66
2023-04-10T11:46:29.027Z,49.79
2023-04-10T11:48:57.897Z,49.46
2023-04-10T11:51:24.423Z,49.44
2023-04-10T11:53:51.105Z,49.86
2023-04-10T11:56:18.904Z,49.40
2023-04-10T11:58:45.797Z,49.01
2023-04-10T12:01:14.567Z,49.14
2023-04-10T12:03:42.423Z,49.18
2023-04-10T12:06:13.287Z,49.13
2023-04-10T12:08:46.000Z,48.92
2023-04-10T12:11:13.135Z,48.68
2023-04-10T12:13:39.877Z,48.70
2023-04-10T12:16:09.889Z,48.53
2023-04-10T12:18:36.741Z,48.54
2023-04-10T12:21:05.031Z,48.61
2023-04-10T12:23:32.102Z,48.90
2023-04-10T12:26:15.635Z,48.79
2023-04-10T12:28:52.331Z,48.60
2023-04-10T12:31:19.110Z,48.77
2023-04-10T12:33:46.453Z,48.69
2023-04-10T12:36:23.018Z,48.83
2023-04-10T12:38:49.512Z,48.49
2023-04-10T12:41:22.083Z,48.80
2023-04-10T12:43:49.520Z,48.97
2023-04-10T12:46:26.766Z,48.15
2023-04-10T12:48:54.026Z,48.27
2023-04-10T12:51:20.812Z,48.51
2023-04-10T12:53:47.401Z,48.50
2023-04-10T12:56:14.549Z,48.74
2023-04-10T12:58:42.632Z,48.49
2023-04-10T13:01:09.769Z,48.57
2023-04-10T13:03:39.611Z,48.63
2023-04-10T13:06:07.389Z,48.68
2023-04-10T13:08:36.955Z,48.69
2023-04-10T13:11:03.630Z,48.76
2023-04-10T13:13:33.306Z,48.74
2023-04-10T13:16:00.215Z,48.63
2023-04-10T13:18:26.876Z,48.34
2023-04-10T13:20:53.507Z,48.66
2023-04-10T13:23:20.020Z,48.90
2023-04-10T13:25:46.837Z,48.89
2023-04-10T13:28:13.368Z,48.97
2023-04-10T13:30:40.692Z,48.74
2023-04-10T13:33:08.006Z,48.65
2023-04-10T13:35:34.683Z,48.56
2023-04-10T13:38:01.306Z,48.72
2023-04-10T13:40:27.868Z,48.67
2023-04-10T13:42:54.523Z,48.66
2023-04-10T13:45:21.068Z,48.81
2023-04-10T13:47:47.740Z,48.43
2023-04-10T13:50:14.251Z,48.55
2023-04-10T13:52:40.770Z,48.13
2023-04-10T13:55:07.807Z,48.51
2023-04-10T13:57:34.372Z,48.32
2023-04-10T14:00:01.426Z,48.49
2023-04-10T14:02:28.176Z,48.12
2023-04-10T14:04:54.869Z,48.47
2023-04-10T14:07:21.463Z,48.83
2023-04-10T14:09:48.534Z,48.47
2023-04-10T14:12:19.261Z,48.39
2023-04-10T14:14:46.116Z,48.94
2023-04-10T14:17:12.693Z,48.26
2023-04-10T14:19:39.887Z,48.35
2023-04-10T14:22:06.510Z,48.32
2023-04-10T14:24:33.251Z,48.33
2023-04-10T14:27:01.867Z,48.33
2023-04-10T14:29:37.474Z,48.26
2023-04-10T14:32:06.033Z,48.37
2023-04-10T14:34:32.601Z,48.46
2023-04-10T14:36:59.673Z,48.24
2023-04-10T14:39:26.337Z,48.23
2023-04-10T14:41:52.955Z,47.98
2023-04-10T14:44:19.493Z,48.13
2023-04-10T14:46:46.256Z,48.20
2023-04-10T14:49:14.136Z,48.31
2023-04-10T14:51:43.319Z,48.18
2023-04-10T14:54:09.827Z,48.26
2023-04-10T14:56:36.674Z,48.23
2023-04-10T14:59:03.247Z,47.96
2023-04-10T15:01:29.805Z,48.21
2023-04-10T15:03:56.569Z,48.42
2023-04-10T15:06:23.426Z,48.38
2023-04-10T15:08:49.972Z,48.64
2023-04-10T15:11:16.674Z,47.54
2023-04-10T15:13:43.269Z,48.11
2023-04-10T15:16:09.830Z,48.01
2023-04-10T15:18:36.363Z,48.17
2023-04-10T15:21:03.027Z,48.04
2023-04-10T15:23:29.606Z,48.18
2023-04-10T15:25:56.255Z,48.17
2023-04-10T15:28:22.834Z,48.22
2023-04-10T15:30:52.431Z,47.95
2023-04-10T15:33:19.002Z,47.97
2023-04-10T15:35:48.556Z,47.95
2023-04-10T15:38:15.061Z,47.86
2023-04-10T15:40:41.648Z,48.37
2023-04-10T15:43:08.184Z,48.39
2023-04-10T15:45:35.969Z,48.02
2023-04-10T15:48:04.566Z,48.08
2023-04-10T15:50:31.354Z,48.03
2023-04-10T15:52:57.904Z,47.88
2023-04-10T15:55:24.445Z,48.02
2023-04-10T15:57:50.996Z,48.06
2023-04-10T16:00:17.811Z,48.17
2023-04-10T16:02:44.683Z,48.14
2023-04-10T16:05:11.539Z,48.01
2023-04-10T16:07:39.116Z,48.39
2023-04-10T16:10:06.478Z,48.51
2023-04-10T16:12:33.034Z,48.78
2023-04-10T16:14:59.607Z,48.23
2023-04-10T16:17:26.165Z,48.38
2023-04-10T16:19:53.899Z,48.73
2023-04-10T16:22:20.437Z,48.72
2023-04-10T16:24:47.011Z,48.95
2023-04-10T16:27:13.540Z,48.69
2023-04-10T16:29:40.329Z,48.84
2023-04-10T16:32:06.946Z,49.10
2023-04-10T16:34:33.448Z,49.32
2023-04-10T16:36:59.921Z,48.86
2023-04-10T16:39:26.499Z,48.91
2023-04-10T16:41:53.097Z,49.05
2023-04-10T16:44:19.679Z,48.88
2023-04-10T16:46:46.434Z,48.64
2023-04-10T16:49:13.034Z,48.56
2023-04-10T16:51:39.587Z,48.76
2023-04-10T16:54:06.261Z,49.00
2023-04-10T16:56:32.793Z,48.79
2023-04-10T16:58:59.412Z,49.00
2023-04-10T17:01:26.085Z,49.27
2023-04-10T17:03:53.039Z,49.17
2023-04-10T17:06:19.787Z,49.31
2023-04-10T17:08:46.477Z,49.02
2023-04-10T17:11:16.230Z,49.20
2023-04-10T17:13:42.870Z,49.06
2023-04-10T17:16:09.426Z,49.28
2023-04-10T17:18:35.988Z,49.11
2023-04-10T17:21:02.506Z,49.18
2023-04-10T17:23:29.648Z,49.33
2023-04-10T17:25:56.174Z,49.26
2023-04-10T17:28:22.726Z,48.87
2023-04-10T17:30:49.345Z,49.58
2023-04-10T17:33:15.992Z,48.76
2023-04-10T17:35:42.605Z,48.28
2023-04-10T17:38:09.171Z,48.13
2023-04-10T17:40:36.889Z,48.22
2023-04-10T17:43:03.430Z,48.19
2023-04-10T17:45:29.940Z,48.42
2023-04-10T17:47:56.594Z,48.88
2023-04-10T17:50:23.376Z,48.42
2023-04-10T17:52:49.964Z,48.18
2023-04-10T17:55:20.641Z,48.63
2023-04-10T17:57:48.605Z,48.51
2023-04-10T18:00:16.112Z,48.57
2023-04-10T18:02:43.278Z,48.44
2023-04-10T18:05:09.983Z,48.68
2023-04-10T18:07:37.413Z,48.70
2023-04-10T18:10:05.185Z,48.89
2023-04-10T18:12:31.915Z,48.63
2023-04-10T18:14:58.482Z,48.55
2023-04-10T18:17:25.088Z,48.64
2023-04-10T18:19:51.692Z,48.43
2023-04-10T18:22:19.024Z,48.51
2023-04-10T18:24:48.610Z,48.65
2023-04-10T18:27:15.265Z,48.67
2023-04-10T18:29:42.687Z,48.67
2023-04-10T18:32:09.303Z,48.97
2023-04-10T18:34:35.934Z,48.81
2023-04-10T18:37:02.567Z,48.62
2023-04-10T18:39:29.103Z,48.66
2023-04-10T18:41:57.713Z,48.96
2023-04-10T18:44:24.298Z,48.62
2023-04-10T18:47:01.369Z,49.03
2023-04-10T18:49:31.063Z,48.80
2023-04-10T18:51:57.685Z,48.81
2023-04-10T18:54:27.030Z,48.90
2023-04-10T18:56:53.661Z,48.84
2023-04-10T18:59:20.297Z,48.79
2023-04-10T19:01:46.925Z,48.87
2023-04-10T19:04:13.745Z,48.59
2023-04-10T19:06:41.106Z,49.18
2023-04-10T19:09:08.760Z,49.02
2023-04-10T19:11:35.359Z,48.99
2023-04-10T19:14:01.972Z,49.06
2023-04-10T19:16:28.576Z,48.94
2023-04-10T19:18:55.444Z,48.99
2023-04-10T19:21:22.135Z,49.00
2023-04-10T19:23:49.302Z,48.82
2023-04-10T19:26:16.037Z,48.85
2023-04-10T19:28:42.579Z,48.22
2023-04-10T19:31:09.224Z,48.87
2023-04-10T19:33:35.801Z,48.83
2023-04-10T19:36:02.399Z,48.89
2023-04-10T19:38:32.768Z,48.89
2023-04-10T19:40:59.387Z,48.55
2023-04-10T19:43:25.926Z,49.00
2023-04-10T19:45:53.374Z,48.58
2023-04-10T19:48:19.935Z,49.10
2023-04-10T19:50:46.573Z,48.84
2023-04-10T19:53:15.520Z,48.92
2023-04-10T19:55:43.803Z,48.51
2023-04-10T19:58:13.424Z,49.23
2023-04-10T20:00:47.571Z,49.30
2023-04-10T20:03:16.176Z,49.21
2023-04-10T20:05:42.935Z,49.06
2023-04-10T20:08:09.579Z,49.56
2023-04-10T20:10:36.173Z,49.38
2023-04-10T20:13:02.705Z,48.98
2023-04-10T20:15:29.244Z,49.23
2023-04-10T20:17:55.820Z,49.08
2023-04-10T20:20:22.329Z,48.99
2023-04-10T20:22:49.002Z,49.40
2023-04-10T20:25:15.772Z,49.25
2023-04-10T20:27:42.286Z,49.23
2023-04-10T20:30:09.834Z,49.44
2023-04-10T20:32:36.892Z,48.87
2023-04-10T20:35:03.791Z,49.29
2023-04-10T20:37:30.317Z,49.56
2023-04-10T20:39:56.920Z,49.44
2023-04-10T20:42:23.466Z,49.48
2023-04-10T20:44:50.060Z,49.38
2023-04-10T20:47:16.705Z,49.46
2023-04-10T20:49:43.327Z,49.72
2023-04-10T20:52:09.906Z,49.38
2023-04-10T20:54:36.401Z,49.28
2023-04-10T20:57:05.728Z,49.46
2023-04-10T20:59:32.847Z,49.35
2023-04-10T21:01:59.479Z,49.39
2023-04-10T21:04:26.030Z,49.28
2023-04-10T21:06:52.765Z,49.44
2023-04-10T21:09:19.776Z,49.39
2023-04-10T21:11:46.359Z,49.45
2023-04-10T21:14:13.216Z,49.36
2023-04-10T21:16:42.489Z,49.43
2023-04-10T21:19:09.411Z,49.58
2023-04-10T21:21:35.920Z,49.51
2023-04-10T21:24:02.511Z,49.32
2023-04-10T21:26:29.053Z,49.53
2023-04-10T21:28:55.806Z,49.74
2023-04-10T21:31:22.514Z,49.53
2023-04-10T21:33:49.100Z,49.09
2023-04-10T21:36:15.873Z,49.59
2023-04-10T21:38:42.385Z,49.63
2023-04-10T21:41:08.930Z,49.63
2023-04-10T21:43:35.568Z,49.87
2023-04-10T21:46:03.111Z,49.50
2023-04-10T21:48:29.949Z,49.61
2023-04-10T21:50:56.507Z,49.75
2023-04-10T21:53:23.059Z,49.69
2023-04-10T21:55:50.258Z,49.58
2023-04-10T21:58:16.837Z,49.74
2023-04-10T22:00:46.934Z,49.31
2023-04-10T22:03:20.144Z,49.60
2023-04-10T22:05:48.884Z,49.69
2023-04-10T22:08:16.017Z,49.82
2023-04-10T22:10:45.410Z,49.74
2023-04-10T22:13:19.784Z,49.56
2023-04-10T22:15:54.477Z,49.79
2023-04-10T22:18:21.074Z,49.64
2023-04-10T22:20:47.619Z,49.91
2023-04-10T22:23:14.154Z,49.67
2023-04-10T22:25:40.715Z,49.75
2023-04-10T22:28:07.228Z,49.55
2023-04-10T22:30:34.486Z,49.78
2023-04-10T22:33:01.081Z,49.44
2023-04-10T22:35:27.791Z,49.93
2023-04-10T22:37:54.395Z,49.71
2023-04-10T22:40:20.952Z,50.30
2023-04-10T22:42:48.499Z,49.49
2023-04-10T22:45:15.619Z,49.77
2023-04-10T22:47:42.128Z,49.75
2023-04-10T22:50:08.847Z,49.91
2023-04-10T22:52:36.223Z,49.57
2023-04-10T22:55:04.252Z,49.82
2023-04-10T22:57:30.803Z,49.95
2023-04-10T22:59:59.486Z,49.61
2023-04-10T23:02:27.559Z,50.00
2023-04-10T23:04:54.448Z,50.05
2023-04-10T23:07:21.100Z,49.66
2023-04-10T23:09:47.660Z,49.70
2023-04-10T23:12:14.190Z,49.72
2023-04-10T23:14:40.749Z,49.79
2023-04-10T23:17:07.245Z,49.93
2023-04-10T23:19:33.800Z,49.75
2023-04-10T23:22:00.487Z,49.82
2023-04-10T23:24:26.999Z,49.97
2023-04-10T23:26:53.479Z,49.97
2023-04-10T23:29:19.989Z,49.66
2023-04-10T23:31:46.592Z,50.00
2023-04-10T23:34:13.239Z,49.94
2023-04-10T23:36:39.739Z,50.04
2023-04-10T23:39:06.248Z,50.21
2023-04-10T23:41:33.376Z,49.95
2023-04-10T23:43:59.913Z,49.58
2023-04-10T23:46:26.611Z,50.28
2023-04-10T23:48:54.859Z,50.11
2023-04-10T23:51:21.582Z,50.23
2023-04-10T23:53:48.352Z,50.11
2023-04-10T23:56:14.956Z,50.05
2023-04-10T23:58:41.522Z,49.87
